Time;durP1;ratioP1;P1;durP2;ratioP2;P2;SDS_P1;SDS_P2;PMS_P1;PMS_P2;Temp;Humidity;BMP_temperature;BMP_pressure;BME280_temperature;BME280_humidity;BME280_pressure;Samples;Min_cycle;Max_cycle;Signal;HPM_P1;HPM_P2
2021/09/24 00:00:04;;;;;;;;;17.50;16.00;;;;;19.20;45.23;101518.63;5010380;28;46100;-44
2021/09/24 00:02:29;;;;;;;;;17.00;16.50;;;;;19.17;45.29;101523.13;5019764;28;45463;-45
2021/09/24 00:04:54;;;;;;;;;20.25;17.50;;;;;19.14;44.72;101525.91;5014306;28;45276;-43
2021/09/24 00:07:20;;;;;;;;;17.00;15.25;;;;;19.11;45.17;101523.34;5001709;28;45442;-42
2021/09/24 00:09:45;;;;;;;;;23.75;17.75;;;;;19.09;45.06;101521.69;5010746;28;45579;-43
2021/09/24 00:12:11;;;;;;;;;22.25;17.25;;;;;19.07;45.64;101519.06;5007621;28;45321;-45
2021/09/24 00:14:36;;;;;;;;;14.00;14.00;;;;;19.06;45.23;101519.13;5001880;28;45231;-43
2021/09/24 00:17:02;;;;;;;;;18.50;17.00;;;;;19.04;45.69;101515.66;5001321;28;45438;-44
2021/09/24 00:19:27;;;;;;;;;18.50;16.25;;;;;19.02;45.08;101518.38;5001569;28;45983;-43
2021/09/24 00:21:52;;;;;;;;;17.00;15.25;;;;;18.99;45.41;101514.03;5010794;28;45322;-42
2021/09/24 00:24:18;;;;;;;;;19.25;18.00;;;;;18.98;45.40;101519.41;5007792;28;45295;-42
2021/09/24 00:26:43;;;;;;;;;17.50;17.25;;;;;18.95;45.41;101515.06;5033301;28;45337;-43
2021/09/24 00:29:08;;;;;;;;;20.00;15.75;;;;;18.93;45.68;101513.38;5013704;28;45357;-41
2021/09/24 00:31:34;;;;;;;;;16.75;13.75;;;;;18.91;45.46;101512.59;5002887;28;45375;-42
2021/09/24 00:33:59;;;;;;;;;14.75;11.50;;;;;18.89;45.27;101514.41;5033719;28;45312;-42
2021/09/24 00:36:24;;;;;;;;;18.00;15.50;;;;;18.85;45.72;101516.28;5006872;28;45408;-44
2021/09/24 00:38:50;;;;;;;;;15.50;13.25;;;;;18.82;46.02;101506.63;5007422;28;47533;-42
2021/09/24 00:41:15;;;;;;;;;13.00;12.25;;;;;18.80;45.89;101497.84;5020109;28;45337;-42
2021/09/24 00:43:41;;;;;;;;;15.50;14.50;;;;;18.76;45.63;101498.88;5001365;28;46015;-45
2021/09/24 00:46:06;;;;;;;;;14.50;13.75;;;;;18.77;45.77;101495.28;5001164;28;45379;-43
2021/09/24 00:48:32;;;;;;;;;16.50;13.50;;;;;18.74;45.87;101497.19;5000861;28;46182;-44
2021/09/24 00:50:57;;;;;;;;;16.50;15.50;;;;;18.72;46.11;101491.06;5000957;28;45302;-44
2021/09/24 00:53:24;;;;;;;;;16.00;15.00;;;;;18.67;45.98;101484.09;5016479;28;45536;-42
2021/09/24 00:55:49;;;;;;;;;19.75;16.75;;;;;18.67;45.98;101486.75;5000807;28;45481;-42
2021/09/24 00:58:15;;;;;;;;;18.25;14.75;;;;;18.66;46.01;101481.50;4999376;28;45912;-42
2021/09/24 01:00:40;;;;;;;;;18.50;17.50;;;;;18.64;46.21;101478.00;5014147;28;45240;-43
2021/09/24 01:03:05;;;;;;;;;15.00;14.75;;;;;18.61;46.27;101473.66;5006367;28;45493;-42
2021/09/24 01:05:31;;;;;;;;;15.25;14.50;;;;;18.57;46.24;101480.03;5008537;28;45633;-43
2021/09/24 01:07:56;;;;;;;;;18.50;16.50;;;;;18.54;46.49;101480.16;5000660;28;46142;-42
2021/09/24 01:10:22;;;;;;;;;18.00;15.50;;;;;18.51;46.27;101486.47;5014888;28;45262;-41
2021/09/24 01:12:47;;;;;;;;;18.50;15.25;;;;;18.48;46.41;101475.06;5001781;28;45415;-42
2021/09/24 01:15:16;;;;;;;;;20.75;17.00;;;;;18.45;46.30;101473.38;5025226;28;45351;-43
2021/09/24 01:17:42;;;;;;;;;21.25;19.50;;;;;18.42;46.78;101476.13;5014250;28;46291;-43
2021/09/24 01:20:10;;;;;;;;;25.75;20.00;;;;;18.40;46.54;101478.00;5000617;28;45402;-42
2021/09/24 01:22:37;;;;;;;;;24.50;22.25;;;;;18.37;46.57;101480.75;5007677;28;45309;-42
2021/09/24 01:25:05;;;;;;;;;21.50;19.00;;;;;18.34;46.70;101479.06;5006614;28;45187;-43
2021/09/24 01:27:31;;;;;;;;;25.50;22.75;;;;;18.31;46.88;101473.88;5000240;28;47015;-42
2021/09/24 01:29:56;;;;;;;;;24.75;22.75;;;;;18.25;46.63;101479.41;5000268;28;45285;-43
2021/09/24 01:32:23;;;;;;;;;25.50;24.00;;;;;18.23;46.72;101481.22;5000441;28;45299;-44
2021/09/24 01:34:49;;;;;;;;;27.25;25.75;;;;;18.18;46.86;101484.03;5000444;28;45468;-46
2021/09/24 01:37:15;;;;;;;;;30.75;24.00;;;;;18.15;46.98;101481.50;5000332;28;45946;-43
2021/09/24 01:39:40;;;;;;;;;29.50;28.25;;;;;18.13;46.87;101480.66;5009839;28;45284;-45
2021/09/24 01:42:06;;;;;;;;;27.50;25.25;;;;;18.11;47.07;101479.88;5000409;28;45451;-44
2021/09/24 01:44:31;;;;;;;;;25.00;23.00;;;;;18.09;47.40;101472.88;5000286;28;45425;-43
2021/09/24 01:46:56;;;;;;;;;30.50;28.75;;;;;18.08;47.12;101476.44;5000106;28;45978;-43
2021/09/24 01:49:22;;;;;;;;;30.75;24.25;;;;;18.04;47.29;101473.00;5000069;28;45238;-41
2021/09/24 01:51:48;;;;;;;;;30.00;25.75;;;;;18.02;47.46;101472.19;5000402;28;45416;-42
2021/09/24 01:54:16;;;;;;;;;26.50;25.25;;;;;18.02;47.45;101477.50;5000115;28;45401;-44
2021/09/24 01:56:42;;;;;;;;;36.50;29.75;;;;;18.00;47.88;101474.06;5000034;28;45460;-43
2021/09/24 01:59:08;;;;;;;;;30.50;26.75;;;;;17.99;47.47;101482.94;5017434;28;45306;-42
2021/09/24 02:01:34;;;;;;;;;34.75;29.25;;;;;17.99;47.58;101489.13;5016439;28;45290;-42
2021/09/24 02:03:59;;;;;;;;;35.00;30.75;;;;;17.96;47.79;101483.91;5007043;28;45206;-43
2021/09/24 02:06:24;;;;;;;;;32.00;26.25;;;;;17.99;47.89;101488.25;5000002;28;45380;-42
2021/09/24 02:08:50;;;;;;;;;29.50;26.00;;;;;17.98;47.79;101484.72;5009392;28;45414;-44
2021/09/24 02:11:15;;;;;;;;;30.25;25.25;;;;;17.97;47.97;101484.78;5013432;28;45168;-42
2021/09/24 02:13:41;;;;;;;;;29.00;26.00;;;;;17.99;47.89;101488.25;4999826;28;45405;-43
2021/09/24 02:16:09;;;;;;;;;26.00;25.25;;;;;17.99;47.83;101478.47;4999953;28;45346;-43
2021/09/24 02:18:35;;;;;;;;;25.50;24.00;;;;;18.00;48.03;101476.72;4999554;28;45383;-42
2021/09/24 02:21:00;;;;;;;;;26.00;22.50;;;;;18.01;47.91;101481.06;5005321;28;45348;-44
2021/09/24 02:23:26;;;;;;;;;28.25;26.00;;;;;18.01;48.17;101481.97;5019415;28;45358;-42
2021/09/24 02:25:51;;;;;;;;;27.75;25.75;;;;;18.02;48.19;101482.81;4999940;28;45261;-42
2021/09/24 02:28:17;;;;;;;;;22.75;22.00;;;;;18.02;48.11;101481.06;4999558;28;45309;-43
2021/09/24 02:30:42;;;;;;;;;20.00;18.25;;;;;18.02;48.14;101477.50;4999839;28;45393;-42
2021/09/24 02:33:07;;;;;;;;;22.25;22.00;;;;;18.02;48.34;101477.50;4998180;28;45345;-43
2021/09/24 02:35:33;;;;;;;;;27.25;22.75;;;;;18.00;48.04;101474.06;5005134;28;46987;-44
2021/09/24 02:37:58;;;;;;;;;19.50;19.50;;;;;18.02;47.95;101472.19;5019388;28;45365;-42
2021/09/24 02:40:23;;;;;;;;;20.75;18.75;;;;;18.01;48.35;101481.97;4999925;28;45285;-42
2021/09/24 02:42:49;;;;;;;;;18.00;16.00;;;;;18.03;48.44;101476.59;5011579;28;46081;-43
2021/09/24 02:45:14;;;;;;;;;16.75;15.50;;;;;18.03;48.39;101471.28;5012817;28;45197;-42
2021/09/24 02:47:40;;;;;;;;;17.25;16.25;;;;;18.05;48.28;101477.41;4999252;28;45164;-44
2021/09/24 02:50:06;;;;;;;;;13.75;13.50;;;;;18.03;48.29;101474.78;4999513;28;45280;-43
2021/09/24 02:52:32;;;;;;;;;17.50;15.00;;;;;18.07;48.51;101480.03;4999459;28;45527;-42
2021/09/24 02:54:58;;;;;;;;;14.50;13.00;;;;;18.08;48.56;101471.97;4999489;28;45213;-43
2021/09/24 02:57:23;;;;;;;;;15.25;13.50;;;;;18.09;48.47;101471.06;4999027;28;45339;-44
2021/09/24 02:59:48;;;;;;;;;16.00;14.75;;;;;18.10;48.73;101470.16;5006529;28;45380;-44
2021/09/24 03:02:14;;;;;;;;;15.75;13.25;;;;;18.13;48.28;101485.13;5005378;28;45498;-42
2021/09/24 03:04:39;;;;;;;;;12.75;12.50;;;;;18.12;48.57;101470.94;5035697;28;45993;-45
2021/09/24 03:07:04;;;;;;;;;16.75;14.50;;;;;18.15;48.61;101480.59;5027472;28;45375;-45
2021/09/24 03:09:30;;;;;;;;;12.00;12.00;;;;;18.15;48.71;101469.97;5007970;28;45400;-42
2021/09/24 03:11:55;;;;;;;;;16.50;13.75;;;;;18.18;48.78;101476.06;5032649;28;45297;-43
2021/09/24 03:14:20;;;;;;;;;14.75;14.75;;;;;18.18;48.61;101465.41;5019044;28;46004;-42
2021/09/24 03:16:46;;;;;;;;;19.25;16.00;;;;;18.19;48.60;101464.50;5002453;28;45376;-43
2021/09/24 03:19:14;;;;;;;;;14.50;12.75;;;;;18.19;48.57;101466.31;5002624;28;45305;-43
2021/09/24 03:21:39;;;;;;;;;13.25;13.25;;;;;18.22;48.73;101468.00;5002598;28;45427;-44
2021/09/24 03:24:05;;;;;;;;;14.25;11.75;;;;;18.21;48.87;101461.78;5014278;28;46130;-43
2021/09/24 03:26:32;;;;;;;;;14.75;13.75;;;;;18.24;49.02;101456.38;5014133;28;45233;-43
2021/09/24 03:28:57;;;;;;;;;16.50;13.25;;;;;18.25;49.02;101460.78;5003782;28;45401;-44
2021/09/24 03:31:23;;;;;;;;;15.25;13.75;;;;;18.24;49.03;101456.38;5001970;28;45311;-43
2021/09/24 03:33:48;;;;;;;;;17.00;12.50;;;;;18.23;48.95;101454.63;5002057;28;45940;-44
2021/09/24 03:36:13;;;;;;;;;22.25;17.25;;;;;18.24;49.11;101453.72;5002433;28;45341;-42
2021/09/24 03:38:39;;;;;;;;;15.75;14.75;;;;;18.23;48.87;101451.13;5002279;28;45921;-41
2021/09/24 03:41:04;;;;;;;;;17.00;15.75;;;;;18.25;49.10;101449.25;5025916;28;45312;-42
2021/09/24 03:43:29;;;;;;;;;17.75;17.00;;;;;18.24;49.67;101450.16;5018199;28;45425;-42
2021/09/24 03:45:55;;;;;;;;;17.25;16.25;;;;;18.24;49.10;101450.16;5000838;28;45311;-42
2021/09/24 03:48:20;;;;;;;;;17.25;14.75;;;;;18.23;49.13;101448.44;5002002;28;45276;-42
2021/09/24 03:50:46;;;;;;;;;16.50;13.50;;;;;18.25;49.08;101452.78;5002098;28;45285;-43
2021/09/24 03:53:11;;;;;;;;;13.25;13.25;;;;;18.26;49.38;101453.66;5001806;28;45428;-44
2021/09/24 03:55:36;;;;;;;;;16.75;14.25;;;;;18.27;49.18;101445.59;5002113;28;45453;-42
2021/09/24 03:58:02;;;;;;;;;19.50;15.50;;;;;18.25;49.54;101443.94;5001724;28;45410;-43
2021/09/24 04:00:27;;;;;;;;;18.75;18.50;;;;;18.22;49.12;101442.25;5013412;28;45405;-43
2021/09/24 04:02:53;;;;;;;;;15.50;15.25;;;;;18.19;49.55;101440.56;5006704;28;46076;-43
2021/09/24 04:05:18;;;;;;;;;21.25;20.25;;;;;18.18;49.64;101448.59;5011314;28;45299;-43
2021/09/24 04:07:43;;;;;;;;;21.75;17.75;;;;;18.16;49.37;101447.78;5009157;28;45234;-43
2021/09/24 04:10:10;;;;;;;;;17.50;15.00;;;;;18.15;49.45;101449.59;5021414;28;45336;-43
2021/09/24 04:12:35;;;;;;;;;17.50;15.75;;;;;18.12;49.78;101449.66;5004321;28;46343;-44
2021/09/24 04:15:01;;;;;;;;;14.50;14.00;;;;;18.11;49.65;101450.63;5001596;28;45265;-43
2021/09/24 04:17:26;;;;;;;;;14.25;14.25;;;;;18.10;49.74;101448.00;5001555;28;45234;-45
2021/09/24 04:19:51;;;;;;;;;15.25;14.25;;;;;18.10;49.96;101450.66;5001516;28;45425;-42
2021/09/24 04:22:17;;;;;;;;;16.50;13.25;;;;;18.06;49.86;101452.53;4996951;28;46348;-42
2021/09/24 04:24:42;;;;;;;;;17.75;15.00;;;;;18.07;49.91;101450.75;5001643;28;45222;-43
2021/09/24 04:27:07;;;;;;;;;17.00;15.00;;;;;18.05;50.05;101456.16;5001531;28;45612;-44
2021/09/24 04:29:33;;;;;;;;;23.00;16.75;;;;;18.01;50.11;101447.41;5001573;28;45208;-44
2021/09/24 04:31:58;;;;;;;;;15.75;14.00;;;;;17.98;49.98;101443.97;5001192;28;45485;-43
2021/09/24 04:34:23;;;;;;;;;16.25;14.25;;;;;17.94;50.23;101434.38;5010732;28;45723;-43
2021/09/24 04:36:49;;;;;;;;;17.25;16.00;;;;;17.95;50.30;101441.41;5017361;28;45369;-43
2021/09/24 04:39:14;;;;;;;;;13.75;13.75;;;;;17.94;50.24;101445.00;5022841;28;45467;-46
2021/09/24 04:41:40;;;;;;;;;14.50;12.50;;;;;17.92;50.13;101449.47;5019792;28;46266;-43
2021/09/24 04:44:05;;;;;;;;;14.25;14.25;;;;;17.91;50.18;101451.25;5001211;28;45417;-45
2021/09/24 04:46:30;;;;;;;;;21.50;17.25;;;;;17.93;50.19;101456.53;5001093;28;45349;-44
2021/09/24 04:48:57;;;;;;;;;16.00;15.50;;;;;17.90;50.24;101453.94;5001098;28;45552;-44
2021/09/24 04:51:22;;;;;;;;;14.50;12.75;;;;;17.90;50.27;101457.50;5000969;28;45301;-42
2021/09/24 04:53:48;;;;;;;;;13.00;11.50;;;;;17.90;50.41;101457.50;5001069;28;45333;-42
2021/09/24 04:56:13;;;;;;;;;13.00;12.50;;;;;17.89;50.49;101450.44;5001112;28;45396;-43
2021/09/24 04:58:38;;;;;;;;;11.25;10.50;;;;;17.87;50.46;101447.84;5000722;28;45471;-42
2021/09/24 05:01:04;;;;;;;;;17.00;10.25;;;;;17.80;50.43;101440.97;5014037;28;45168;-45
2021/09/24 05:03:29;;;;;;;;;12.00;10.00;;;;;17.85;50.82;101452.31;5009770;28;45250;-42
2021/09/24 05:05:54;;;;;;;;;13.75;13.25;;;;;17.87;50.40;101457.59;5019608;28;45199;-42
2021/09/24 05:08:20;;;;;;;;;13.75;13.00;;;;;17.85;50.42;101454.97;5011962;28;45172;-43
2021/09/24 05:10:45;;;;;;;;;15.50;15.00;;;;;17.89;50.33;101460.22;5013816;28;45250;-44
2021/09/24 05:13:10;;;;;;;;;15.00;14.25;;;;;17.87;50.39;101446.94;5000826;28;45310;-45
2021/09/24 05:15:36;;;;;;;;;13.00;12.50;;;;;17.91;50.32;101448.59;5000947;28;45280;-44
2021/09/24 05:18:01;;;;;;;;;14.75;12.00;;;;;17.92;50.41;101452.13;5018728;28;45305;-43
2021/09/24 05:20:27;;;;;;;;;18.75;17.25;;;;;17.91;50.57;101445.94;5021740;28;45395;-42
2021/09/24 05:22:57;;;;;;;;;17.75;16.75;;;;;17.95;50.55;101449.38;5000790;28;45237;-45
2021/09/24 05:25:22;;;;;;;;;17.50;15.75;;;;;17.97;50.55;101447.53;5000614;28;45353;-42
2021/09/24 05:27:49;;;;;;;;;18.75;16.50;;;;;17.98;50.25;101446.63;5000379;28;45499;-42
2021/09/24 05:30:14;;;;;;;;;17.25;15.00;;;;;17.99;50.50;101445.72;5000338;28;45318;-42
2021/09/24 05:32:40;;;;;;;;;20.25;15.00;;;;;18.01;50.34;101446.50;4998844;28;45329;-43
2021/09/24 05:35:06;;;;;;;;;15.75;15.00;;;;;18.01;50.44;101436.75;5015204;23;45344;-46
2021/09/24 05:37:32;;;;;;;;;14.00;14.00;;;;;18.02;50.17;101435.84;5019366;28;45217;-45
2021/09/24 05:39:57;;;;;;;;;16.50;13.00;;;;;18.05;50.62;101437.53;5018914;28;46247;-42
2021/09/24 05:42:22;;;;;;;;;24.75;22.25;;;;;18.06;50.48;101428.59;5019445;28;45329;-42
2021/09/24 05:44:48;;;;;;;;;18.50;17.00;;;;;18.09;50.52;101438.28;5016870;28;45433;-42
2021/09/24 05:47:13;;;;;;;;;19.00;14.75;;;;;18.09;50.54;101431.16;5000185;28;45227;-46
2021/09/24 05:49:39;;;;;;;;;19.00;13.25;;;;;18.10;50.36;101432.91;4986841;28;45278;-46
2021/09/24 05:52:04;;;;;;;;;19.75;17.00;;;;;18.12;50.40;101432.84;5000257;28;45297;-46
2021/09/24 05:54:30;;;;;;;;;18.25;14.50;;;;;18.13;50.56;101431.94;5000210;28;45415;-45
2021/09/24 05:56:56;;;;;;;;;16.25;13.00;;;;;18.14;50.58;101434.53;5000120;28;45535;-44
2021/09/24 05:59:22;;;;;;;;;19.00;14.00;;;;;18.16;50.61;101437.13;5000103;28;46082;-46
2021/09/24 06:01:48;;;;;;;;;17.25;17.00;;;;;18.16;50.39;101446.00;4999794;28;45291;-45
2021/09/24 06:04:19;;;;;;;;;18.00;16.25;;;;;18.18;50.79;101445.94;5000118;28;45329;-45
2021/09/24 06:06:45;;;;;;;;;13.75;11.25;;;;;18.18;50.72;101446.78;4999981;28;45388;-46
2021/09/24 06:09:10;;;;;;;;;14.75;13.75;;;;;18.19;50.69;101442.38;4998316;28;48517;-47
2021/09/24 06:11:36;;;;;;;;;16.75;13.25;;;;;18.20;50.23;101449.44;4999826;28;45257;-49
2021/09/24 06:14:02;;;;;;;;;17.00;14.50;;;;;18.21;50.72;101450.28;4998559;28;45417;-47
2021/09/24 06:16:28;;;;;;;;;14.25;14.00;;;;;18.24;50.82;101439.53;4999891;28;45372;-47
2021/09/24 06:18:54;;;;;;;;;23.50;17.00;;;;;18.24;50.76;101447.50;4999719;28;46271;-47
2021/09/24 06:21:21;;;;;;;;;13.50;12.25;;;;;18.23;50.85;101441.31;5000043;28;45313;-45
2021/09/24 06:23:46;;;;;;;;;16.25;14.00;;;;;18.24;50.74;101436.88;4986710;28;45230;-45
2021/09/24 06:26:11;;;;;;;;;15.25;14.25;;;;;18.24;50.80;101434.19;4999820;28;45181;-43
2021/09/24 06:28:37;;;;;;;;;20.25;15.25;;;;;18.25;50.63;101441.25;4999502;28;46381;-43
2021/09/24 06:31:02;;;;;;;;;14.50;13.00;;;;;18.22;50.79;101434.25;4999839;28;45301;-44
2021/09/24 06:33:28;;;;;;;;;19.75;16.00;;;;;18.26;50.95;101437.69;4999876;28;45218;-43
2021/09/24 06:35:53;;;;;;;;;21.25;18.50;;;;;18.26;50.71;101438.53;4999542;28;45287;-44
2021/09/24 06:38:19;;;;;;;;;22.75;18.25;;;;;18.25;50.75;101436.84;4999526;28;45887;-45
2021/09/24 06:40:44;;;;;;;;;17.50;16.00;;;;;18.25;50.70;101434.19;4999803;28;45242;-45
2021/09/24 06:43:10;;;;;;;;;26.00;19.75;;;;;18.27;50.94;101442.94;4999625;28;45838;-47
2021/09/24 06:45:36;;;;;;;;;23.75;17.00;;;;;18.26;51.08;101438.53;5002523;28;45329;-45
2021/09/24 06:48:01;;;;;;;;;16.00;14.75;;;;;18.28;50.85;101441.19;5002631;28;46405;-46
2021/09/24 06:50:27;;;;;;;;;21.25;17.75;;;;;18.30;51.10;101436.66;5002980;28;45317;-48
2021/09/24 06:52:52;;;;;;;;;22.00;20.25;;;;;18.31;51.02;101441.06;5002938;28;45294;-46
2021/09/24 06:55:21;;;;;;;;;23.00;21.75;;;;;18.30;50.94;101439.31;5002338;28;45466;-47
2021/09/24 06:57:48;;;;;;;;;18.50;17.00;;;;;18.34;51.04;101440.97;4999628;28;46319;-49
2021/09/24 07:00:14;;;;;;;;;22.25;18.50;;;;;18.37;50.88;101443.50;5009049;28;45317;-50
2021/09/24 07:02:39;;;;;;;;;22.00;19.25;;;;;18.40;50.86;101450.50;5009201;28;45160;-48
2021/09/24 07:05:05;;;;;;;;;25.75;18.00;;;;;18.42;50.92;101446.84;5002481;28;45377;-47
2021/09/24 07:07:31;;;;;;;;;22.50;19.25;;;;;18.44;51.03;101445.03;5014406;28;47244;-44
2021/09/24 07:09:58;;;;;;;;;31.75;26.50;;;;;18.47;51.17;101452.03;5002239;28;45318;-44
2021/09/24 07:12:24;;;;;;;;;27.75;23.50;;;;;18.49;51.10;101447.53;5002633;28;45366;-48
2021/09/24 07:14:49;;;;;;;;;31.00;26.50;;;;;18.52;51.09;101448.25;5004345;28;45561;-45
2021/09/24 07:17:14;;;;;;;;;27.50;25.50;;;;;18.55;50.96;101446.41;5006267;28;45402;-45
2021/09/24 07:19:41;;;;;;;;;33.50;29.50;;;;;18.58;50.95;101446.28;5002488;28;45239;-45
2021/09/24 07:22:07;;;;;;;;;27.75;24.75;;;;;18.59;51.10;101450.69;5002563;28;45299;-46
2021/09/24 07:24:32;;;;;;;;;31.25;25.75;;;;;18.62;50.90;101446.13;5002369;28;45243;-47
2021/09/24 07:26:58;;;;;;;;;32.00;27.00;;;;;18.65;51.17;101451.38;5002234;28;46312;-47
2021/09/24 07:29:23;;;;;;;;;30.25;28.50;;;;;18.70;51.22;101445.00;5002486;28;45167;-47
2021/09/24 07:31:49;;;;;;;;;35.50;28.25;;;;;18.72;50.99;101446.66;5003380;28;45222;-48
2021/09/24 07:34:14;;;;;;;;;32.75;30.00;;;;;18.75;51.14;101451.00;5012295;28;45280;-46
2021/09/24 07:36:39;;;;;;;;;36.25;33.00;;;;;18.78;51.12;101441.13;5002040;28;46180;-47
2021/09/24 07:39:06;;;;;;;;;41.00;35.00;;;;;18.82;51.18;101444.53;5002322;28;45406;-45
2021/09/24 07:41:32;;;;;;;;;33.50;29.50;;;;;18.86;50.94;101446.16;5000974;28;45380;-49
2021/09/24 07:43:59;;;;;;;;;28.50;23.00;;;;;18.89;50.75;101440.69;5001687;28;45580;-47
2021/09/24 07:46:25;;;;;;;;;32.00;29.25;;;;;18.93;50.84;101445.03;5001521;28;46324;-46
2021/09/24 07:48:51;;;;;;;;;32.25;27.00;;;;;18.95;50.79;101442.31;5001989;28;45381;-46
2021/09/24 07:51:17;;;;;;;;;31.25;25.75;;;;;18.98;50.84;101436.84;4988471;28;45266;-45
2021/09/24 07:53:43;;;;;;;;;26.00;22.75;;;;;19.04;51.26;101447.25;5001883;28;45310;-45
2021/09/24 07:56:09;;;;;;;;;32.00;24.25;;;;;19.05;51.01;101443.69;5000668;28;45354;-43
2021/09/24 07:58:38;;;;;;;;;34.25;25.25;;;;;19.10;51.22;101447.03;5001717;28;45384;-49
2021/09/24 08:01:03;;;;;;;;;28.50;23.00;;;;;19.13;51.21;101452.25;5000024;28;45353;-45
2021/09/24 08:03:29;;;;;;;;;25.50;21.75;;;;;19.09;50.73;101439.97;5001904;28;45472;-49
2021/09/24 08:05:54;;;;;;;;;24.50;21.00;;;;;19.20;50.76;101457.34;5002438;28;45368;-48
2021/09/24 08:08:20;;;;;;;;;32.00;25.50;;;;;19.21;51.00;101457.28;5012690;28;45226;-46
2021/09/24 08:10:45;;;;;;;;;22.25;21.50;;;;;19.24;51.20;101456.28;5001629;28;45681;-46
2021/09/24 08:13:11;;;;;;;;;30.50;26.00;;;;;19.26;50.70;101447.31;5001673;28;45252;-50
2021/09/24 08:15:42;;;;;;;;;28.00;26.50;;;;;19.29;51.06;101463.16;5001440;28;45361;-47
2021/09/24 08:18:07;;;;;;;;;22.25;22.00;;;;;19.30;51.09;101459.56;5001319;28;45389;-45
2021/09/24 08:20:33;;;;;;;;;27.50;25.50;;;;;19.34;50.66;101465.66;5001396;28;45357;-48
2021/09/24 08:22:58;;;;;;;;;24.25;24.25;;;;;19.37;50.70;101462.00;5000488;28;45491;-47
2021/09/24 08:25:23;;;;;;;;;27.00;24.75;;;;;19.40;51.12;101462.75;4998911;28;46033;-47
2021/09/24 08:27:49;;;;;;;;;32.50;27.50;;;;;19.40;50.91;101452.06;4999251;28;45298;-49
2021/09/24 08:30:16;;;;;;;;;28.00;27.25;;;;;19.47;50.95;101468.69;5000935;28;45326;-47
2021/09/24 08:32:44;;;;;;;;;25.25;22.25;;;;;19.49;51.18;101473.03;5001028;28;45506;-49
2021/09/24 08:35:11;;;;;;;;;29.75;22.50;;;;;19.52;51.22;101464.06;5000848;28;46261;-45
2021/09/24 08:37:38;;;;;;;;;25.50;21.25;;;;;19.59;51.32;101470.00;5001173;28;45424;-47
2021/09/24 08:40:06;;;;;;;;;22.25;19.25;;;;;19.61;51.05;101466.34;5016533;28;45340;-45
2021/09/24 08:42:31;;;;;;;;;23.75;19.75;;;;;19.63;51.10;101464.50;5001059;28;45227;-47
2021/09/24 08:44:57;;;;;;;;;26.25;25.00;;;;;19.68;50.72;101466.09;4996001;28;46851;-45
2021/09/24 08:47:24;;;;;;;;;26.00;23.50;;;;;19.63;51.15;101458.28;4991614;28;45235;-44
2021/09/24 08:49:49;;;;;;;;;24.50;19.00;;;;;19.74;50.91;101471.19;4997327;28;45246;-47
2021/09/24 08:52:14;;;;;;;;;23.00;20.25;;;;;19.79;51.18;101470.03;4991864;28;45179;-45
2021/09/24 08:54:40;;;;;;;;;25.00;19.50;;;;;19.84;51.18;101469.91;5000778;28;45402;-44
2021/09/24 08:57:11;;;;;;;;;21.25;17.00;;;;;19.89;50.99;101467.91;5001125;28;45707;-44
2021/09/24 08:59:37;;;;;;;;;19.25;18.00;;;;;19.94;50.93;101468.56;5000964;28;45276;-47
2021/09/24 09:02:06;;;;;;;;;19.50;16.50;;;;;20.01;50.76;101474.50;5000533;28;45377;-47
2021/09/24 09:04:44;;;;;;;;;20.00;17.50;;;;;20.08;50.77;101465.31;5000631;28;47288;-44
2021/09/24 09:07:13;;;;;;;;;18.00;17.00;;;;;20.13;51.22;101468.66;5000727;28;45313;-45
2021/09/24 09:09:41;;;;;;;;;23.25;18.75;;;;;20.21;51.30;101472.78;5006556;28;45343;-45
2021/09/24 09:12:39;;;;;;;;;18.00;17.50;;;;;20.30;50.66;101464.38;5007249;28;45467;-45
2021/09/24 09:15:14;;;;;;;;;19.50;18.00;;;;;20.38;50.68;101466.75;4971363;28;47239;-45
2021/09/24 09:17:47;;;;;;;;;24.75;15.75;;;;;20.44;51.01;101464.66;4999074;28;45266;-46
2021/09/24 09:20:27;;;;;;;;;31.25;29.75;;;;;20.52;50.58;101456.31;5000833;28;45398;-45
2021/09/24 09:23:06;;;;;;;;;33.50;29.25;;;;;20.60;51.07;101458.63;4989690;28;45309;-48
2021/09/24 09:25:33;;;;;;;;;20.50;20.50;;;;;20.69;50.86;101462.69;5000499;28;46179;-45
2021/09/24 09:28:02;;;;;;;;;61.00;49.50;;;;;20.76;51.08;101462.38;4998959;28;45489;-48
2021/09/24 09:30:28;;;;;;;;;159.67;152.67;;;;;20.85;50.78;101457.56;4999272;28;45221;-44
2021/09/24 09:33:15;;;;;;;;;38.00;31.50;;;;;20.93;50.70;101461.59;5000381;28;45339;-47
2021/09/24 09:36:07;;;;;;;;;15.00;12.25;;;;;21.02;50.64;101471.00;4987898;28;46156;-47
2021/09/24 09:38:37;;;;;;;;;17.00;14.50;;;;;21.07;50.81;101468.97;4999891;28;45492;-46
2021/09/24 09:41:10;;;;;;;;;19.25;16.25;;;;;21.14;50.28;101461.53;5000356;28;45325;-44
2021/09/24 09:43:38;;;;;;;;;15.50;14.25;;;;;21.20;50.47;101453.22;4999897;28;45352;-45
2021/09/24 09:46:17;;;;;;;;;13.25;12.75;;;;;21.26;50.63;101460.94;4999859;28;47143;-47
2021/09/24 09:48:45;;;;;;;;;12.00;9.50;;;;;21.34;50.43;101459.72;4988708;28;45228;-44
2021/09/24 09:51:20;;;;;;;;;17.00;16.00;;;;;21.41;50.34;101461.16;5000080;28;45340;-46
2021/09/24 09:53:49;;;;;;;;;16.75;15.50;;;;;21.49;49.76;101450.09;5000005;28;45519;-46
2021/09/24 09:56:14;;;;;;;;;20.25;17.25;;;;;21.53;49.70;101447.16;4999841;28;46126;-44
2021/09/24 09:58:40;;;;;;;;;17.00;15.25;;;;;21.59;50.33;101454.06;4999860;28;45356;-45
2021/09/24 10:01:14;;;;;;;;;15.75;14.75;;;;;21.65;50.18;101453.75;4999826;28;45436;-48
2021/09/24 10:03:49;;;;;;;;;22.25;21.00;;;;;21.71;50.16;101447.22;4999975;28;45253;-46
2021/09/24 10:06:20;;;;;;;;;15.75;13.25;;;;;21.78;49.95;101446.00;4999612;28;46217;-46
2021/09/24 10:08:50;;;;;;;;;16.75;14.25;;;;;21.84;49.86;101436.81;4999428;28;45297;-47
2021/09/24 10:11:18;;;;;;;;;18.50;14.00;;;;;21.86;50.07;101441.13;4993581;28;45313;-48
2021/09/24 10:13:53;;;;;;;;;16.25;15.25;;;;;21.94;49.71;101440.72;4993082;28;45555;-46
2021/09/24 10:16:24;;;;;;;;;19.50;16.25;;;;;21.98;49.77;101444.97;4999399;28;46052;-46
2021/09/24 10:18:49;;;;;;;;;18.25;15.25;;;;;22.03;49.83;101444.75;4999550;28;45404;-47
2021/09/24 10:21:15;;;;;;;;;17.25;14.00;;;;;22.08;49.33;101448.06;5006425;28;45338;-45
2021/09/24 10:23:43;;;;;;;;;27.75;23.75;;;;;22.13;49.54;101445.16;5006300;28;45330;-44
2021/09/24 10:26:15;;;;;;;;;19.50;17.25;;;;;22.18;49.29;101446.63;5005956;28;47121;-44
2021/09/24 10:28:42;;;;;;;;;17.50;16.25;;;;;22.23;49.35;101446.38;5005860;28;45285;-48
2021/09/24 10:31:16;;;;;;;;;16.75;15.50;;;;;22.27;49.73;101442.59;5021177;28;45369;-47
2021/09/24 10:33:44;;;;;;;;;18.25;15.75;;;;;22.32;49.38;101443.22;5006078;28;45306;-47
2021/09/24 10:36:10;;;;;;;;;17.00;15.00;;;;;22.36;49.55;101439.47;5005868;28;46049;-47
2021/09/24 10:38:43;;;;;;;;;20.50;17.00;;;;;22.42;49.10;101442.78;5001093;28;45508;-46
2021/09/24 10:41:13;;;;;;;;;14.00;13.00;;;;;22.47;49.01;101441.56;4998829;28;45245;-44
2021/09/24 10:43:44;;;;;;;;;15.50;15.00;;;;;22.46;49.27;101431.81;5004507;28;45474;-46
2021/09/24 10:46:33;;;;;;;;;16.25;14.25;;;;;22.55;49.20;101441.16;5005723;28;45240;-45
2021/09/24 10:49:18;;;;;;;;;19.00;15.00;;;;;22.60;49.14;101436.41;4995599;28;45333;-46
2021/09/24 10:52:11;;;;;;;;;15.25;13.75;;;;;22.62;48.88;101442.56;4993015;28;45326;-46
2021/09/24 10:54:53;;;;;;;;;15.50;15.50;;;;;22.66;48.82;101430.72;5005815;28;45447;-47
2021/09/24 10:57:18;;;;;;;;;13.00;12.50;;;;;22.68;48.65;101428.84;5004416;28;46082;-46
2021/09/24 10:59:43;;;;;;;;;17.00;15.25;;;;;22.72;48.65;101429.56;5005667;28;45414;-49
2021/09/24 11:02:36;;;;;;;;;18.75;15.75;;;;;22.76;48.72;101417.72;5005830;28;45471;-45
2021/09/24 11:05:02;;;;;;;;;17.75;16.50;;;;;22.81;48.51;101417.47;4986236;28;45225;-47
2021/09/24 11:07:31;;;;;;;;;17.75;16.75;;;;;22.87;48.76;101407.25;5000867;28;46102;-44